Time,TemperatureF,DewpointF,PressureIn,WindDirection,WindDirectionDegrees,WindSpeedMPH,WindSpeedGustMPH,Humidity,HourlyPrecipIn,Conditions,Clouds,dailyrainin,SolarRadiationWatts/m^2,SoftwareType,DateUTC
2013-07-01 00:01:00,73.7,73.0,29.96,SSW,202,0.0,1.0,98,0.00,,,0.00,0,weatherlink.com 1.10,2013-07-01 04:01:00,
2013-07-01 00:18:00,73.8,73.0,29.95,NE,47,1.0,3.0,98,0.00,,,0.00,0,weatherlink.com 1.10,2013-07-01 04:18:00,
2013-07-01 01:04:00,73.8,73.0,29.95,SSE,152,0.0,2.0,98,0.00,,,0.00,0,weatherlink.com 1.10,2013-07-01 05:04:00,
2013-07-01 01:18:00,73.8,73.0,29.95,SW,215,0.0,3.0,98,0.00,,,0.00,0,weatherlink.com 1.10,2013-07-01 05:18:00,
2013-07-01 01:32:00,73.8,73.0,29.94,SSW,211,1.0,3.0,98,0.00,,,0.00,0,weatherlink.com 1.10,2013-07-01 05:32:00,
2013-07-01 01:48:00,73.8,73.0,29.93,SSW,201,0.0,3.0,98,0.00,,,0.00,0,weatherlink.com 1.10,2013-07-01 05:48:00,
2013-07-01 02:04:00,73.8,73.0,29.93,SSE,155,1.0,5.0,98,0.00,,,0.00,0,weatherlink.com 1.10,2013-07-01 06:04:00,
2013-07-01 02:34:00,74.0,73.0,29.93,WSW,245,0.0,4.0,98,0.01,,,0.01,0,weatherlink.com 1.10,2013-07-01 06:34:00,
2013-07-01 02:49:00,74.1,74.0,29.93,WSW,238,0.0,3.0,98,0.01,,,0.01,0,weatherlink.com 1.10,2013-07-01 06:49:00,
2013-07-01 03:05:00,74.1,74.0,29.92,SW,223,0.0,2.0,98,0.00,,,0.01,0,weatherlink.com 1.10,2013-07-01 07:05:00,
2013-07-01 03:20:00,74.2,74.0,29.92,WSW,241,0.0,5.0,98,0.00,,,0.01,0,weatherlink.com 1.10,2013-07-01 07:20:00,
2013-07-01 03:50:00,74.2,74.0,29.92,SSW,211,0.0,3.0,98,0.00,,,0.01,0,weatherlink.com 1.10,2013-07-01 07:50:00,
2013-07-01 04:05:00,74.0,73.0,29.93,SSW,205,0.0,2.0,98,0.00,,,0.01,0,weatherlink.com 1.10,2013-07-01 08:05:00,
2013-07-01 04:20:00,74.0,73.0,29.93,SW,225,1.0,5.0,98,0.00,,,0.01,0,weatherlink.com 1.10,2013-07-01 08:20:00,
2013-07-01 04:36:00,74.2,74.0,29.93,SW,223,1.0,5.0,98,0.00,,,0.01,0,weatherlink.com 1.10,2013-07-01 08:36:00,
2013-07-01 04:51:00,74.2,74.0,29.92,SSW,212,1.0,3.0,98,0.00,,,0.01,0,weatherlink.com 1.10,2013-07-01 08:51:00,
2013-07-01 05:06:00,74.2,74.0,29.92,SW,225,1.0,3.0,98,0.00,,,0.01,0,weatherlink.com 1.10,2013-07-01 09:06:00,
2013-07-01 05:21:00,74.2,74.0,29.92,WSW,248,0.0,3.0,98,0.00,,,0.01,0,weatherlink.com 1.10,2013-07-01 09:21:00,
2013-07-01 05:37:00,74.3,74.0,29.92,WSW,240,0.0,3.0,98,0.00,,,0.01,0,weatherlink.com 1.10,2013-07-01 09:37:00,
2013-07-01 05:51:00,74.4,74.0,29.93,WSW,251,1.0,4.0,98,0.00,,,0.01,0,weatherlink.com 1.10,2013-07-01 09:51:00,
2013-07-01 06:08:00,74.7,74.0,29.94,SW,225,1.0,5.0,98,0.01,,,0.02,0,weatherlink.com 1.10,2013-07-01 10:08:00,
2013-07-01 06:38:00,74.6,74.0,29.95,SW,222,2.0,7.0,98,0.01,,,0.02,0,weatherlink.com 1.10,2013-07-01 10:38:00,
2013-07-01 06:53:00,74.6,74.0,29.96,SSW,207,4.0,7.0,98,0.00,,,0.02,5,weatherlink.com 1.10,2013-07-01 10:53:00,
2013-07-01 07:08:00,74.7,74.0,29.96,South,186,1.0,6.0,98,0.00,,,0.02,9,weatherlink.com 1.10,2013-07-01 11:08:00,
2013-07-01 07:22:00,74.6,74.0,29.97,SW,223,1.0,6.0,98,0.00,,,0.02,16,weatherlink.com 1.10,2013-07-01 11:22:00,
2013-07-01 07:39:00,74.7,74.0,29.98,WSW,249,3.0,7.0,98,0.01,,,0.03,40,weatherlink.com 1.10,2013-07-01 11:39:00,
2013-07-01 08:09:00,75.0,74.0,29.97,WSW,242,1.0,8.0,97,0.01,,,0.03,105,weatherlink.com 1.10,2013-07-01 12:09:00,
2013-07-01 08:24:00,75.1,74.0,29.97,SW,214,5.0,8.0,96,0.00,,,0.03,137,weatherlink.com 1.10,2013-07-01 12:24:00,
2013-07-01 08:39:00,75.6,74.0,29.98,WSW,240,3.0,7.0,96,0.00,,,0.03,207,weatherlink.com 1.10,2013-07-01 12:39:00,
2013-07-01 08:55:00,76.2,74.0,29.97,South,178,1.0,9.0,94,0.00,,,0.03,304,weatherlink.com 1.10,2013-07-01 12:55:00,
2013-07-01 09:40:00,78.9,76.0,29.97,SSW,209,1.0,7.0,91,0.00,,,0.03,559,weatherlink.com 1.10,2013-07-01 13:40:00,
2013-07-01 09:55:00,80.4,77.0,29.97,South,184,2.0,11.0,88,0.00,,,0.03,656,weatherlink.com 1.10,2013-07-01 13:55:00,
2013-07-01 10:27:00,81.6,76.0,29.97,SSW,203,5.0,9.0,84,0.00,,,0.03,596,weatherlink.com 1.10,2013-07-01 14:27:00,
2013-07-01 10:56:00,82.6,78.0,29.99,SSW,202,6.0,9.0,86,0.00,,,0.03,647,weatherlink.com 1.10,2013-07-01 14:56:00,
2013-07-01 11:12:00,83.7,78.0,29.99,SW,219,5.0,8.0,82,0.00,,,0.03,775,weatherlink.com 1.10,2013-07-01 15:12:00,
2013-07-01 11:27:00,84.6,78.0,30.00,ESE,121,0.0,7.0,81,0.00,,,0.03,267,weatherlink.com 1.10,2013-07-01 15:27:00,
2013-07-01 11:58:00,85.2,78.0,30.00,SW,215,9.0,10.0,80,0.00,,,0.03,564,weatherlink.com 1.10,2013-07-01 15:58:00,
2013-07-01 12:14:00,85.2,79.0,30.00,SSE,164,4.0,12.0,81,0.00,,,0.03,422,weatherlink.com 1.10,2013-07-01 16:14:00,
2013-07-01 12:29:00,84.9,78.0,30.00,SSW,207,5.0,14.0,79,0.00,,,0.03,459,weatherlink.com 1.10,2013-07-01 16:29:00,
2013-07-01 12:44:00,85.0,78.0,30.00,SW,232,6.0,13.0,80,0.00,,,0.03,487,weatherlink.com 1.10,2013-07-01 16:44:00,
2013-07-01 13:01:00,85.3,78.0,29.99,SW,235,4.0,10.0,79,0.00,,,0.03,455,weatherlink.com 1.10,2013-07-01 17:01:00,
2013-07-01 13:17:00,86.0,79.0,29.99,SSW,207,2.0,9.0,80,0.00,,,0.03,621,weatherlink.com 1.10,2013-07-01 17:17:00,
2013-07-01 13:28:00,87.4,80.0,29.98,SW,231,2.0,10.0,78,0.00,,,0.03,417,weatherlink.com 1.10,2013-07-01 17:28:00,
2013-07-01 13:45:00,86.8,75.0,29.99,SE,125,4.0,18.0,68,0.00,,,0.03,37,weatherlink.com 1.10,2013-07-01 17:45:00,
2013-07-01 13:59:00,77.7,72.0,29.99,East,94,5.0,11.0,82,0.21,,,0.24,72,weatherlink.com 1.10,2013-07-01 17:59:00,
2013-07-01 14:14:00,74.9,73.0,29.98,East,94,0.0,2.0,92,0.22,,,0.25,221,weatherlink.com 1.10,2013-07-01 18:14:00,
2013-07-01 14:30:00,75.3,74.0,29.97,South,182,1.0,2.0,95,0.22,,,0.25,248,weatherlink.com 1.10,2013-07-01 18:30:00,
2013-07-01 14:45:00,73.7,71.0,29.97,South,180,5.0,22.0,90,0.36,,,0.39,51,weatherlink.com 1.10,2013-07-01 18:45:00,
2013-07-01 14:59:00,73.0,71.0,29.98,SW,234,0.0,4.0,94,0.16,,,0.40,91,weatherlink.com 1.10,2013-07-01 18:59:00,
2013-07-01 15:15:00,73.3,72.0,29.98,ESE,123,1.0,3.0,95,0.15,,,0.40,116,weatherlink.com 1.10,2013-07-01 19:15:00,
2013-07-01 15:30:00,74.0,73.0,30.00,SE,141,2.0,2.0,97,0.15,,,0.40,97,weatherlink.com 1.10,2013-07-01 19:30:00,
2013-07-01 15:45:00,74.4,73.0,30.00,West,276,1.0,5.0,96,0.00,,,0.40,176,weatherlink.com 1.10,2013-07-01 19:45:00,
2013-07-01 16:00:00,74.4,73.0,30.01,West,259,3.0,10.0,94,0.16,,,0.56,12,weatherlink.com 1.10,2013-07-01 20:00:00,
2013-07-01 16:15:00,73.2,72.0,30.02,SW,234,1.0,6.0,96,0.33,,,0.73,14,weatherlink.com 1.10,2013-07-01 20:15:00,
2013-07-01 16:45:00,73.3,72.0,30.02,SW,233,0.0,2.0,97,0.40,,,0.80,16,weatherlink.com 1.10,2013-07-01 20:45:00,
2013-07-01 17:00:00,73.4,73.0,30.02,SW,233,0.0,0.0,97,0.21,,,0.81,14,weatherlink.com 1.10,2013-07-01 21:00:00,
2013-07-01 17:16:00,73.3,72.0,30.02,East,85,2.0,3.0,97,0.09,,,0.82,18,weatherlink.com 1.10,2013-07-01 21:16:00,
2013-07-01 17:30:00,72.8,72.0,30.02,SSE,149,0.0,2.0,97,0.05,,,0.84,30,weatherlink.com 1.10,2013-07-01 21:30:00,
2013-07-01 17:46:00,72.4,72.0,30.03,SE,142,0.0,1.0,97,0.05,,,0.85,49,weatherlink.com 1.10,2013-07-01 21:46:00,
2013-07-01 18:01:00,72.6,72.0,30.02,WSW,254,0.0,3.0,97,0.05,,,0.86,72,weatherlink.com 1.10,2013-07-01 22:01:00,
2013-07-01 18:16:00,73.0,72.0,30.03,SW,215,0.0,2.0,97,0.04,,,0.86,107,weatherlink.com 1.10,2013-07-01 22:16:00,
2013-07-01 18:31:00,73.5,73.0,30.03,SW,234,1.0,3.0,98,0.02,,,0.86,56,weatherlink.com 1.10,2013-07-01 22:31:00,
2013-07-01 18:46:00,73.5,73.0,30.04,SW,228,1.0,4.0,97,0.02,,,0.87,25,weatherlink.com 1.10,2013-07-01 22:46:00,
2013-07-01 19:01:00,73.5,73.0,30.04,WSW,238,0.0,4.0,97,0.01,,,0.87,26,weatherlink.com 1.10,2013-07-01 23:01:00,
2013-07-01 19:17:00,73.4,73.0,30.03,SSW,206,0.0,4.0,97,0.01,,,0.87,21,weatherlink.com 1.10,2013-07-01 23:17:00,
2013-07-01 19:31:00,73.3,72.0,30.03,SSW,206,0.0,1.0,97,0.02,,,0.88,19,weatherlink.com 1.10,2013-07-01 23:31:00,
2013-07-01 20:02:00,73.2,73.0,30.02,SSW,207,0.0,1.0,98,0.01,,,0.88,12,weatherlink.com 1.10,2013-07-02 00:02:00,
2013-07-01 20:17:00,73.2,73.0,30.02,SSW,207,0.0,0.0,98,0.01,,,0.88,0,weatherlink.com 1.10,2013-07-02 00:17:00,
2013-07-01 20:33:00,73.0,72.0,30.01,SSW,207,0.0,0.0,97,0.00,,,0.88,0,weatherlink.com 1.10,2013-07-02 00:33:00,
2013-07-01 20:49:00,72.8,72.0,30.02,SSW,207,0.0,0.0,97,0.00,,,0.88,0,weatherlink.com 1.10,2013-07-02 00:49:00,
2013-07-01 21:03:00,72.8,72.0,30.03,SSW,207,0.0,0.0,98,0.00,,,0.88,0,weatherlink.com 1.10,2013-07-02 01:03:00,
2013-07-01 21:18:00,72.7,72.0,30.04,SSW,207,0.0,0.0,98,0.00,,,0.88,0,weatherlink.com 1.10,2013-07-02 01:18:00,
2013-07-01 21:34:00,72.7,72.0,30.05,SSW,207,0.0,0.0,98,0.00,,,0.88,0,weatherlink.com 1.10,2013-07-02 01:34:00,
2013-07-01 21:49:00,72.8,72.0,30.05,SSW,207,0.0,1.0,98,0.00,,,0.88,0,weatherlink.com 1.10,2013-07-02 01:49:00,
2013-07-01 22:04:00,72.6,72.0,30.06,SSW,207,0.0,0.0,98,0.00,,,0.88,0,weatherlink.com 1.10,2013-07-02 02:04:00,
2013-07-01 22:49:00,72.5,72.0,30.07,SSW,202,0.0,2.0,98,0.00,,,0.88,0,weatherlink.com 1.10,2013-07-02 02:49:00,
2013-07-01 23:06:00,72.7,72.0,30.07,SSW,202,0.0,1.0,98,0.00,,,0.88,0,weatherlink.com 1.10,2013-07-02 03:06:00,
2013-07-01 23:21:00,72.7,72.0,30.07,SSW,201,2.0,2.0,98,0.00,,,0.88,0,weatherlink.com 1.10,2013-07-02 03:21:00,
2013-07-01 23:35:00,72.6,72.0,30.07,SSW,201,0.0,1.0,98,0.00,,,0.88,0,weatherlink.com 1.10,2013-07-02 03:35:00,
2013-07-01 23:51:00,72.4,72.0,30.07,ESE,113,0.0,2.0,98,0.00,,,0.88,0,weatherlink.com 1.10,2013-07-02 03:51:00,